Airfield :
LOGIN :

Register | Disclaimer

   EN    FR    IT 

 










Legend :    VFR   Marginal VFR   IFR   Intensive IFR   Very Intensive IFR
Visi :
Ceiling :
>= 8 km
>= 3000ft
5 to 8 km
1000 to 3000 ft
1500m to 5 km
500 to 1000 ft
800 to 1500m
200 to 500 ft
< 800m
< 200 ft
Symbols :   Thunderstorms  Fog  Heavy snow  Heavy precipitations  Wind > 20 kt
SIGMETs :     Misc.  Thunderstorms  Icing  Turbulence  Mountain Waves  Volcanic Ashes







- Airport Elevation : 15 ft
- IATA code : BHD
- Download approach charts


EGAC - George Best Belfast City

CURRENT METAR :
  • 221950Z AUTO 24009KT 210V280 9999 NCD 08/01 Q1025

EXPIRED METARs :
  • 221920Z AUTO 25008KT 210V290 9999 NCD 08/01 Q1025
  • 221850Z AUTO 24007KT 220V280 9999 NCD 09/00 Q1024
  • 221820Z AUTO 26008KT 220V290 9999 FEW045/// 09/02 Q1023
  • 221750Z AUTO 26009KT 230V300 9999 NCD 09/02 Q1023
  • 221720Z AUTO 26011KT 9999 SCT045/// 10/01 Q1022

TAF TAF EGAC
Valid from the 22 at 18:00 until the 22 at 22:00 UTC


221704Z 2218/2222 26011KT 9999 FEW035
ATIS : +44 02890 935 124
No reported NOTAMs for that airfield.
1 SIGMET reported for the Scottish FIR (EGPX) :
 
Severe turbulence
EGPX SIGMET 09 VALID 221900/222300 EGRR
EGPX SCOTTISH FIR SEV TURB FCST N OF LINE N5827 E00235 - N5702 W01000 SFC/FL060 STNR NC=



MET'MAP, your aeronautical weather chart ! - Copyright ORBIFLY December 2007 - Disclaimer

ORBIFLY MET'MAP TEAM :

Programming & Development : Alexandra Zaïnal
Concept & Development : Baudouin d'Aumeries
Co-Development & Prog : Marc-Olivier Méhu
Technical & hardware support : Manuel Goepfert

Contact : metmap@orbifly.com




SOURCES & CREDITS :

   NOAA